Time;durP1;ratioP1;P1;durP2;ratioP2;P2;SDS_P1;SDS_P2;PMS_P1;PMS_P2;Temp;Humidity;BMP_temperature;BMP_pressure;BME280_temperature;BME280_humidity;BME280_pressure;Samples;Min_cycle;Max_cycle;Signal;HPM_P1;HPM_P2
2022/06/19 00:00:46;;;;;;;9.48;2.13;;;13.70;99.90;;;;;;4681802;30;20383;-86
2022/06/19 00:03:17;;;;;;;10.57;2.30;;;13.70;99.90;;;;;;4682214;30;20516;-87
2022/06/19 00:05:43;;;;;;;8.90;1.85;;;13.70;99.90;;;;;;4682270;30;20050;-86
2022/06/19 00:08:09;;;;;;;8.80;1.88;;;13.70;99.90;;;;;;4667086;30;20509;-85
2022/06/19 00:10:34;;;;;;;10.77;1.75;;;13.60;99.90;;;;;;4681912;30;20625;-86
2022/06/19 00:13:00;;;;;;;9.00;1.88;;;13.70;99.90;;;;;;4682175;30;20050;-86
2022/06/19 00:15:25;;;;;;;9.70;1.92;;;13.60;99.90;;;;;;4682145;30;20042;-87
2022/06/19 00:17:51;;;;;;;8.93;2.25;;;13.60;99.90;;;;;;4687670;30;20042;-86
2022/06/19 00:20:17;;;;;;;11.90;1.90;;;13.70;99.90;;;;;;4694030;30;20053;-87
2022/06/19 00:22:46;;;;;;;8.95;2.00;;;13.70;99.90;;;;;;4681062;30;20046;-88
2022/06/19 00:25:12;;;;;;;7.90;1.88;;;13.60;99.90;;;;;;4694746;30;20054;-88
2022/06/19 00:27:39;;;;;;;9.98;1.80;;;13.70;99.90;;;;;;4681898;30;20423;-86
2022/06/19 00:30:12;;;;;;;8.07;1.58;;;13.70;99.90;;;;;;4687092;30;20533;-86
2022/06/19 00:32:38;;;;;;;7.35;1.77;;;13.70;99.90;;;;;;4682011;30;20549;-86
2022/06/19 00:35:06;;;;;;;4.55;1.58;;;13.70;99.90;;;;;;4697819;30;20088;-87
2022/06/19 00:37:35;;;;;;;8.35;1.77;;;13.70;99.90;;;;;;4696135;30;20108;-86
2022/06/19 00:40:04;;;;;;;10.90;1.90;;;13.70;99.90;;;;;;4681869;30;20498;-87
2022/06/19 00:42:31;;;;;;;9.38;2.45;;;13.70;99.90;;;;;;4681263;30;20041;-88
2022/06/19 00:44:57;;;;;;;11.38;1.90;;;13.60;99.90;;;;;;4681659;30;20480;-87
2022/06/19 00:47:29;;;;;;;8.38;1.92;;;13.70;99.90;;;;;;4681326;30;20136;-88
2022/06/19 00:50:22;;;;;;;8.50;1.60;;;13.70;99.90;;;;;;4682108;30;20510;-88
2022/06/19 00:52:48;;;;;;;10.75;1.88;;;13.70;99.90;;;;;;4680959;30;20054;-88
2022/06/19 00:55:22;;;;;;;6.95;1.38;;;13.70;99.90;;;;;;4681737;30;20141;-88
2022/06/19 00:57:56;;;;;;;11.10;2.20;;;13.70;99.90;;;;;;4681092;30;20094;-88
2022/06/19 01:00:31;;;;;;;6.18;1.48;;;13.70;99.90;;;;;;4680820;30;20117;-88
2022/06/19 01:03:49;;;;;;;7.13;1.47;;;13.70;99.90;;;;;;4681023;30;20053;-88
2022/06/19 01:06:15;;;;;;;10.73;1.80;;;13.70;99.90;;;;;;4656935;30;20293;-87
2022/06/19 01:08:44;;;;;;;6.88;1.63;;;13.70;99.90;;;;;;4666734;30;20096;-88
2022/06/19 01:11:13;;;;;;;6.57;1.85;;;13.70;99.90;;;;;;4681097;30;20514;-88
2022/06/19 01:13:39;;;;;;;9.98;1.75;;;13.70;99.90;;;;;;4666990;30;20057;-87
2022/06/19 01:16:08;;;;;;;11.48;2.30;;;13.70;99.90;;;;;;4680729;30;20033;-88
2022/06/19 01:18:37;;;;;;;10.05;2.38;;;13.70;99.90;;;;;;4674210;30;20046;-88
2022/06/19 01:21:21;;;;;;;8.15;1.48;;;13.60;99.90;;;;;;4680562;30;20494;-89
2022/06/19 01:24:06;;;;;;;10.13;1.98;;;13.70;99.90;;;;;;4661616;30;20046;-89
2022/06/19 01:26:38;;;;;;;8.95;1.77;;;13.70;99.90;;;;;;4695349;30;20132;-88
2022/06/19 01:29:03;;;;;;;10.32;2.13;;;13.70;99.90;;;;;;4694811;30;20050;-88
2022/06/19 01:31:47;;;;;;;11.82;2.47;;;13.80;99.90;;;;;;4671761;30;20563;-88
2022/06/19 01:34:32;;;;;;;7.13;1.35;;;13.80;99.90;;;;;;4694111;30;20399;-88
2022/06/19 01:37:10;;;;;;;7.13;1.85;;;13.80;99.90;;;;;;4678781;30;20038;-88
2022/06/19 01:39:41;;;;;;;7.53;1.88;;;13.80;99.90;;;;;;4653049;30;20495;-88
2022/06/19 01:42:13;;;;;;;5.80;1.70;;;14.00;99.90;;;;;;4680844;30;20088;-87
2022/06/19 01:44:43;;;;;;;5.28;1.30;;;13.90;99.90;;;;;;4680770;30;20089;-87
2022/06/19 01:47:12;;;;;;;6.90;1.45;;;13.90;99.90;;;;;;4670832;30;20064;-87
2022/06/19 01:49:41;;;;;;;7.57;1.20;;;13.90;99.90;;;;;;4694953;30;20137;-87
2022/06/19 01:52:08;;;;;;;6.22;1.80;;;13.90;99.90;;;;;;4666155;30;20137;-87
2022/06/19 01:54:37;;;;;;;6.35;1.20;;;13.90;99.90;;;;;;4679820;30;20057;-87
2022/06/19 01:57:08;;;;;;;9.15;1.38;;;14.00;99.90;;;;;;4680457;30;20053;-88
2022/06/19 01:59:36;;;;;;;15.27;1.83;;;14.00;99.90;;;;;;4701632;30;20042;-86
2022/06/19 02:02:04;;;;;;;9.48;1.52;;;14.00;99.90;;;;;;4679762;30;20049;-88
2022/06/19 02:04:31;;;;;;;6.55;1.30;;;14.00;99.90;;;;;;4680512;30;20054;-87
2022/06/19 02:07:01;;;;;;;6.53;1.10;;;13.90;99.90;;;;;;4680365;30;20139;-89
2022/06/19 02:09:36;;;;;;;19.88;1.73;;;14.00;99.90;;;;;;4694543;30;20061;-87
2022/06/19 02:12:03;;;;;;;7.30;1.27;;;14.00;99.90;;;;;;4680700;30;20050;-87
2022/06/19 02:14:30;;;;;;;7.60;1.38;;;13.90;99.90;;;;;;4680379;30;20050;-88
2022/06/19 02:16:59;;;;;;;9.85;1.60;;;14.00;99.90;;;;;;4680577;30;20042;-87
2022/06/19 02:19:24;;;;;;;6.50;1.30;;;13.90;99.90;;;;;;4666214;30;20049;-87
2022/06/19 02:21:55;;;;;;;9.13;1.73;;;13.90;99.90;;;;;;4680273;30;20046;-87
2022/06/19 02:24:26;;;;;;;13.52;1.60;;;13.90;99.90;;;;;;4680150;30;20498;-87
2022/06/19 02:26:54;;;;;;;9.90;1.60;;;13.90;99.90;;;;;;4678926;30;20498;-87
2022/06/19 02:29:21;;;;;;;8.82;1.73;;;13.90;99.90;;;;;;4680065;30;20054;-87
2022/06/19 02:31:52;;;;;;;6.93;1.50;;;13.90;99.90;;;;;;4680306;30;20136;-86
2022/06/19 02:34:31;;;;;;;9.45;1.83;;;13.90;99.90;;;;;;4680508;30;20136;-88
2022/06/19 02:37:04;;;;;;;9.10;1.63;;;13.90;99.90;;;;;;4667791;30;20042;-87
2022/06/19 02:39:42;;;;;;;11.68;1.77;;;13.90;99.90;;;;;;4694023;30;20057;-86
2022/06/19 02:42:20;;;;;;;8.77;1.65;;;13.90;99.90;;;;;;4680306;30;20495;-87
2022/06/19 02:44:54;;;;;;;8.27;1.75;;;13.90;99.90;;;;;;4666017;30;20518;-87
2022/06/19 02:47:22;;;;;;;10.20;1.45;;;13.90;99.90;;;;;;4666806;30;20065;-88
2022/06/19 02:49:48;;;;;;;9.95;1.85;;;13.90;99.90;;;;;;4679947;30;20056;-88
2022/06/19 02:52:14;;;;;;;12.55;1.67;;;13.90;99.90;;;;;;4680715;30;20050;-87
2022/06/19 02:54:40;;;;;;;11.55;2.00;;;13.90;99.90;;;;;;4674983;30;20128;-86
2022/06/19 02:57:09;;;;;;;10.75;1.60;;;13.90;99.90;;;;;;4680032;30;20207;-87
2022/06/19 02:59:35;;;;;;;10.27;2.00;;;13.90;99.90;;;;;;4679869;30;20038;-89
2022/06/19 03:02:00;;;;;;;11.45;2.15;;;13.90;99.90;;;;;;4679857;30;20081;-87
2022/06/19 03:04:32;;;;;;;8.25;1.70;;;13.90;99.90;;;;;;4679886;30;20136;-87
2022/06/19 03:06:58;;;;;;;11.10;1.95;;;13.90;99.90;;;;;;4677283;30;20064;-87
2022/06/19 03:09:24;;;;;;;9.80;1.60;;;13.90;99.90;;;;;;4683024;30;20050;-87
2022/06/19 03:11:50;;;;;;;9.50;2.00;;;14.00;99.90;;;;;;4682937;30;20046;-87
2022/06/19 03:14:16;;;;;;;8.85;1.63;;;13.90;99.90;;;;;;4682249;30;20050;-87
2022/06/19 03:16:43;;;;;;;12.65;1.95;;;13.90;99.90;;;;;;4681766;30;20073;-87
2022/06/19 03:19:09;;;;;;;15.80;2.00;;;13.90;99.90;;;;;;4682942;30;20038;-88
2022/06/19 03:21:35;;;;;;;10.50;2.20;;;14.00;99.90;;;;;;4673223;30;20562;-88
2022/06/19 03:24:01;;;;;;;9.18;2.03;;;14.00;99.90;;;;;;4665419;30;20042;-87
2022/06/19 03:26:26;;;;;;;9.52;2.13;;;13.90;99.90;;;;;;4683546;30;20053;-87
2022/06/19 03:28:55;;;;;;;17.60;2.58;;;13.90;99.90;;;;;;4711091;30;20042;-87
2022/06/19 03:31:23;;;;;;;14.52;2.50;;;13.90;99.90;;;;;;4682569;30;20101;-87
2022/06/19 03:33:49;;;;;;;15.45;2.10;;;13.90;99.90;;;;;;4682734;30;20061;-87
2022/06/19 03:36:21;;;;;;;12.38;1.98;;;13.90;99.90;;;;;;4682993;30;20708;-85
2022/06/19 03:38:47;;;;;;;174.48;163.85;;;13.80;99.90;;;;;;4682490;30;20490;-86
2022/06/19 03:41:14;;;;;;;458.33;436.85;;;13.80;99.90;;;;;;4668236;30;20046;-88
2022/06/19 03:43:40;;;;;;;280.85;269.05;;;13.80;99.90;;;;;;4664874;30;20126;-88
2022/06/19 03:46:12;;;;;;;187.73;179.38;;;13.80;99.90;;;;;;4672734;30;20132;-88
2022/06/19 03:48:50;;;;;;;434.58;416.33;;;13.80;99.90;;;;;;4706789;30;20057;-88
2022/06/19 03:51:17;;;;;;;598.03;570.95;;;13.80;99.90;;;;;;4665693;30;20046;-88
2022/06/19 03:53:45;;;;;;;808.50;762.22;;;13.80;99.90;;;;;;4682345;30;20053;-88
2022/06/19 03:56:15;;;;;;;851.17;798.38;;;13.70;99.90;;;;;;4667301;30;20188;-88
2022/06/19 03:58:47;;;;;;;805.38;758.50;;;13.80;99.90;;;;;;4696701;30;20092;-87
2022/06/19 04:01:24;;;;;;;784.28;738.30;;;13.80;99.90;;;;;;4682398;30;20045;-87
2022/06/19 04:03:52;;;;;;;672.90;639.97;;;13.80;99.90;;;;;;4682082;30;20519;-87
2022/06/19 04:06:20;;;;;;;631.45;601.50;;;13.80;99.90;;;;;;4681842;30;20502;-87
2022/06/19 04:08:49;;;;;;;611.75;582.65;;;13.90;99.90;;;;;;4667788;30;20046;-86
2022/06/19 04:11:20;;;;;;;576.83;549.67;;;13.80;99.90;;;;;;4667085;30;20053;-88
2022/06/19 04:13:46;;;;;;;593.60;565.72;;;13.80;99.90;;;;;;4668101;30;20054;-87
2022/06/19 04:16:30;;;;;;;476.42;455.95;;;13.80;99.90;;;;;;4710164;30;20491;-86
2022/06/19 04:19:01;;;;;;;471.60;451.05;;;13.80;99.90;;;;;;4667051;30;20042;-85
2022/06/19 04:21:30;;;;;;;108.00;103.47;;;13.90;99.90;;;;;;4686376;30;20045;-85
2022/06/19 04:23:58;;;;;;;87.95;84.13;;;13.80;99.90;;;;;;4682088;30;20077;-85
2022/06/19 04:26:27;;;;;;;81.60;78.25;;;13.80;99.90;;;;;;4661334;30;20065;-85
2022/06/19 04:28:53;;;;;;;63.38;60.60;;;13.80;99.90;;;;;;4677162;30;20234;-87
2022/06/19 04:31:22;;;;;;;62.13;59.42;;;13.90;99.90;;;;;;4676053;30;20056;-83
2022/06/19 04:33:48;;;;;;;69.03;65.95;;;13.90;99.90;;;;;;4681133;30;20139;-86
2022/06/19 04:36:17;;;;;;;72.65;69.35;;;14.00;99.90;;;;;;4695534;30;20160;-87
2022/06/19 04:38:46;;;;;;;77.88;74.65;;;13.90;99.90;;;;;;4681456;30;20042;-85
2022/06/19 04:41:14;;;;;;;77.95;74.55;;;14.00;99.90;;;;;;4681916;30;20053;-87
2022/06/19 04:43:40;;;;;;;87.75;84.25;;;14.00;99.90;;;;;;4681834;30;20049;-87
2022/06/19 04:46:06;;;;;;;120.20;115.35;;;14.10;99.90;;;;;;4682001;30;20450;-87
2022/06/19 04:48:33;;;;;;;133.77;128.65;;;14.00;99.90;;;;;;4685086;30;20128;-88
2022/06/19 04:50:59;;;;;;;53.30;50.90;;;14.10;99.90;;;;;;4685008;30;20054;-86
2022/06/19 04:53:25;;;;;;;42.58;40.70;;;14.10;99.90;;;;;;4685016;30;20056;-87
2022/06/19 04:55:51;;;;;;;73.45;70.18;;;14.20;99.90;;;;;;4684858;30;20053;-87
2022/06/19 04:58:17;;;;;;;64.85;61.97;;;14.20;99.90;;;;;;4684788;30;20476;-87
2022/06/19 05:00:42;;;;;;;58.08;55.67;;;14.30;99.90;;;;;;4681437;30;20081;-87
2022/06/19 05:03:08;;;;;;;89.93;86.50;;;14.40;99.90;;;;;;4667912;30;20144;-87
2022/06/19 05:05:34;;;;;;;65.13;62.33;;;14.40;99.90;;;;;;4652024;30;20097;-88
2022/06/19 05:08:00;;;;;;;69.80;67.03;;;14.50;99.90;;;;;;4679045;30;20054;-88
2022/06/19 05:10:25;;;;;;;43.35;41.55;;;14.60;99.90;;;;;;4650329;30;20139;-88
2022/06/19 05:12:56;;;;;;;54.97;52.33;;;14.60;99.90;;;;;;4695734;30;20050;-87
2022/06/19 05:15:22;;;;;;;71.85;68.68;;;14.60;99.90;;;;;;4671239;30;20130;-87
2022/06/19 05:17:47;;;;;;;91.07;87.55;;;14.60;99.90;;;;;;4666992;30;20133;-88
2022/06/19 05:20:13;;;;;;;73.72;70.53;;;14.60;99.90;;;;;;4681388;30;20491;-87
2022/06/19 05:22:41;;;;;;;148.23;142.30;;;14.50;99.90;;;;;;4681516;30;20117;-88
2022/06/19 05:25:38;;;;;;;117.78;113.18;;;14.40;99.90;;;;;;4675853;30;20045;-88
2022/06/19 05:28:04;;;;;;;101.53;97.30;;;14.30;99.90;;;;;;4670428;30;20042;-87
2022/06/19 05:30:30;;;;;;;155.70;149.65;;;14.20;99.90;;;;;;4667172;30;20052;-88
2022/06/19 05:32:55;;;;;;;152.32;146.07;;;14.10;99.90;;;;;;4667557;30;20125;-87
2022/06/19 05:35:21;;;;;;;196.35;188.90;;;14.00;99.90;;;;;;4674539;30;20046;-87
2022/06/19 05:37:47;;;;;;;159.98;153.43;;;14.00;99.90;;;;;;4672516;30;20104;-88
2022/06/19 05:40:13;;;;;;;142.68;137.02;;;13.90;99.90;;;;;;4666667;30;20140;-86
2022/06/19 05:42:38;;;;;;;157.60;151.30;;;13.90;99.90;;;;;;4666899;30;20049;-87
2022/06/19 05:45:05;;;;;;;116.68;111.90;;;13.90;99.90;;;;;;4666834;30;20576;-87
2022/06/19 05:47:30;;;;;;;147.57;141.60;;;14.00;99.90;;;;;;4667146;30;20053;-87
2022/06/19 05:49:56;;;;;;;92.13;88.20;;;14.00;99.90;;;;;;4663657;30;20415;-87
2022/06/19 05:52:24;;;;;;;141.32;135.48;;;14.00;99.90;;;;;;4675299;30;20100;-87
2022/06/19 05:54:53;;;;;;;82.95;79.63;;;14.10;99.90;;;;;;4666718;30;20050;-87
2022/06/19 05:57:28;;;;;;;94.18;90.10;;;14.30;99.90;;;;;;4681020;30;20050;-87
2022/06/19 05:59:54;;;;;;;81.05;77.35;;;14.20;99.90;;;;;;4666453;30;20049;-87
2022/06/19 06:02:22;;;;;;;75.68;72.18;;;14.30;99.90;;;;;;4709742;30;20046;-87
2022/06/19 06:04:48;;;;;;;67.45;64.38;;;14.30;99.90;;;;;;4680725;30;20514;-87
2022/06/19 06:07:14;;;;;;;87.82;84.07;;;14.30;99.90;;;;;;4687759;30;20052;-87
2022/06/19 06:09:40;;;;;;;76.85;73.47;;;14.40;99.90;;;;;;4652123;30;20067;-87
2022/06/19 06:12:06;;;;;;;61.58;58.97;;;14.30;99.90;;;;;;4677961;30;20054;-87
2022/06/19 06:14:40;;;;;;;52.67;50.20;;;14.30;99.90;;;;;;4669580;30;20041;-88
2022/06/19 06:17:06;;;;;;;55.58;53.13;;;14.30;99.90;;;;;;4656490;30;20052;-88
2022/06/19 06:19:33;;;;;;;48.13;45.80;;;14.30;99.90;;;;;;4680874;30;20042;-87
2022/06/19 06:22:01;;;;;;;49.95;47.70;;;14.30;99.90;;;;;;4708018;30;20533;-87
2022/06/19 06:24:30;;;;;;;42.92;40.75;;;14.20;99.90;;;;;;4694534;30;20136;-85
2022/06/19 06:27:02;;;;;;;40.72;39.03;;;14.20;99.90;;;;;;4666986;30;20050;-87
2022/06/19 06:29:28;;;;;;;43.65;41.85;;;14.10;99.90;;;;;;4680613;30;20174;-87
2022/06/19 06:32:03;;;;;;;40.78;38.67;;;14.00;99.90;;;;;;4680597;30;20549;-87
2022/06/19 06:34:29;;;;;;;60.25;57.42;;;14.00;99.90;;;;;;4666116;30;20050;-87
2022/06/19 06:36:55;;;;;;;49.83;47.72;;;14.00;99.90;;;;;;4680753;30;20046;-87
2022/06/19 06:39:20;;;;;;;39.67;37.97;;;14.10;99.90;;;;;;4674842;30;20051;-87
2022/06/19 06:41:46;;;;;;;43.95;41.95;;;14.10;99.90;;;;;;4663722;30;20237;-87
2022/06/19 06:44:56;;;;;;;34.95;33.45;;;14.10;99.90;;;;;;4683869;30;20088;-86
2022/06/19 06:47:24;;;;;;;32.00;30.40;;;14.10;99.90;;;;;;4683866;30;20057;-87
2022/06/19 06:50:11;;;;;;;21.55;20.35;;;14.10;99.90;;;;;;4669599;30;20367;-87
2022/06/19 06:52:40;;;;;;;25.50;24.17;;;14.10;99.90;;;;;;4684263;30;20053;-87
2022/06/19 06:55:20;;;;;;;25.77;24.35;;;14.10;99.90;;;;;;4682013;30;20066;-87
2022/06/19 06:57:46;;;;;;;24.25;22.75;;;14.10;99.90;;;;;;4673619;30;20053;-87
2022/06/19 07:03:10;;;;;;;27.88;26.52;;;14.10;99.90;;;;;;4669361;30;20050;-87
2022/06/19 07:05:35;;;;;;;29.48;28.17;;;14.20;99.90;;;;;;4678550;30;20046;-88
2022/06/19 07:08:05;;;;;;;25.10;23.63;;;14.20;99.90;;;;;;4669277;30;20136;-87
2022/06/19 07:10:31;;;;;;;22.77;21.58;;;14.20;99.90;;;;;;4683747;30;20053;-87
2022/06/19 07:13:00;;;;;;;26.90;25.48;;;14.20;99.90;;;;;;4668926;30;20061;-87
2022/06/19 07:15:26;;;;;;;26.23;25.02;;;14.40;99.90;;;;;;4711696;30;20080;-88
2022/06/19 07:17:58;;;;;;;22.25;21.05;;;14.30;99.90;;;;;;4697789;30;20588;-87
2022/06/19 07:20:27;;;;;;;24.20;22.75;;;14.30;99.90;;;;;;4698302;30;20490;-87
2022/06/19 07:22:53;;;;;;;24.08;22.70;;;14.30;99.90;;;;;;4697786;30;20061;-87
2022/06/19 07:25:20;;;;;;;24.85;23.58;;;14.30;99.90;;;;;;4683340;30;20053;-88
2022/06/19 07:27:49;;;;;;;24.83;23.63;;;14.20;99.90;;;;;;4711960;30;20132;-88
2022/06/19 07:30:17;;;;;;;28.15;26.65;;;14.20;99.90;;;;;;4696319;30;20046;-87
2022/06/19 07:32:43;;;;;;;29.00;27.30;;;14.20;99.90;;;;;;4682895;30;20077;-87
2022/06/19 07:35:09;;;;;;;33.75;31.85;;;14.20;99.90;;;;;;4710956;30;20144;-87
2022/06/19 07:37:35;;;;;;;28.50;26.98;;;14.10;99.90;;;;;;4683299;30;20498;-87
2022/06/19 07:40:02;;;;;;;26.48;24.58;;;14.20;99.90;;;;;;4679778;30;20046;-87
2022/06/19 07:42:27;;;;;;;27.27;25.88;;;14.10;99.90;;;;;;4697605;30;20105;-86
2022/06/19 07:44:53;;;;;;;29.75;27.92;;;14.20;99.90;;;;;;4668042;30;20086;-81
2022/06/19 07:50:09;;;;;;;29.35;27.85;;;14.20;99.90;;;;;;4680978;30;20057;-85
2022/06/19 07:52:43;;;;;;;29.83;28.20;;;14.20;99.90;;;;;;4663839;30;20042;-86
2022/06/19 07:55:12;;;;;;;30.33;28.63;;;14.20;99.90;;;;;;4682363;30;20133;-86
2022/06/19 07:57:38;;;;;;;25.80;24.50;;;14.20;99.90;;;;;;4695434;30;20042;-88
2022/06/19 08:00:09;;;;;;;30.50;28.60;;;14.20;99.90;;;;;;4696216;30;20100;-87
2022/06/19 08:02:35;;;;;;;28.63;26.67;;;14.20;99.90;;;;;;4675540;30;20145;-86
2022/06/19 08:05:01;;;;;;;31.50;29.80;;;14.20;99.90;;;;;;4681917;30;20074;-86
2022/06/19 08:07:28;;;;;;;33.85;32.00;;;14.30;99.90;;;;;;4667912;30;20050;-86
2022/06/19 08:09:57;;;;;;;33.38;31.70;;;14.40;99.90;;;;;;4673714;30;20491;-86
2022/06/19 08:12:39;;;;;;;36.55;34.58;;;14.40;99.90;;;;;;4696893;25;20058;-80
2022/06/19 08:15:20;;;;;;;28.50;26.90;;;14.60;99.90;;;;;;4668444;30;20063;-80
2022/06/19 08:18:28;;;;;;;28.58;26.90;;;14.60;99.90;;;;;;4651796;30;20053;-80
2022/06/19 08:21:09;;;;;;;28.17;26.45;;;14.80;99.90;;;;;;4653236;30;20058;-80
2022/06/19 08:24:01;;;;;;;33.15;31.15;;;14.90;99.90;;;;;;4625021;30;20061;-80
2022/06/19 08:27:15;;;;;;;25.83;24.23;;;15.10;99.90;;;;;;4673925;30;20054;-82
2022/06/19 08:30:48;;;;;;;28.83;27.25;;;15.20;99.90;;;;;;4665649;30;20149;-81
2022/06/19 08:37:14;;;;;;;30.60;28.65;;;15.10;99.90;;;;;;4639257;30;20364;-81
2022/06/19 08:40:06;;;;;;;28.33;26.73;;;15.10;99.90;;;;;;4669213;30;20117;-81
2022/06/19 08:43:27;;;;;;;32.92;31.08;;;15.10;99.90;;;;;;4646982;30;20513;-81
2022/06/19 08:50:26;;;;;;;29.98;28.42;;;15.00;99.90;;;;;;4624335;30;20193;-80
2022/06/19 08:57:21;;;;;;;31.27;29.48;;;15.00;99.90;;;;;;4630965;30;20210;-80
2022/06/19 09:00:54;;;;;;;28.08;26.65;;;14.90;99.90;;;;;;4638951;30;20055;-81
2022/06/19 09:07:35;;;;;;;28.17;26.52;;;14.90;99.90;;;;;;4699386;30;20525;-81
2022/06/19 09:26:01;;;;;;;37.17;35.20;;;14.80;99.90;;;;;;4556627;31;20056;-81
2022/06/19 09:29:30;;;;;;;34.15;31.98;;;15.00;99.90;;;;;;4591033;31;20127;-82
2022/06/19 09:32:31;;;;;;;28.95;27.40;;;15.20;99.90;;;;;;4592902;31;20052;-81
2022/06/19 09:35:51;;;;;;;33.72;31.77;;;15.40;99.90;;;;;;4652627;30;20062;-81
2022/06/19 09:42:38;;;;;;;35.50;33.63;;;15.70;99.90;;;;;;4661594;30;20097;-81
2022/06/19 09:46:01;;;;;;;28.35;26.88;;;15.80;99.90;;;;;;4665001;30;20077;-81
2022/06/19 09:49:02;;;;;;;28.90;27.25;;;15.90;99.90;;;;;;4664522;30;20053;-81
2022/06/19 09:52:00;;;;;;;15.93;14.55;;;15.90;99.90;;;;;;4670339;30;20050;-82
2022/06/19 09:55:17;;;;;;;;;;;;;;;;;;;;;
2022/06/19 10:31:11;;;;;;;18.30;17.23;;;16.60;99.90;;;;;;5525057;25;20914;-82
2022/06/19 10:34:11;;;;;;;20.40;19.23;;;16.70;99.90;;;;;;4678257;30;20510;-82
2022/06/19 10:36:51;;;;;;;20.45;19.25;;;16.90;99.90;;;;;;4681939;30;20045;-82
2022/06/19 10:39:32;;;;;;;21.58;20.48;;;17.10;99.90;;;;;;4685172;30;20137;-82
2022/06/19 10:42:13;;;;;;;21.30;20.20;;;17.30;99.90;;;;;;4670553;30;20054;-82
2022/06/19 10:45:12;;;;;;;24.60;23.30;;;17.50;99.90;;;;;;4670152;30;20104;-82
2022/06/19 14:24:01;;;;;;;39.60;38.00;;;19.40;97.20;;;;;;4680408;30;20050;-84
2022/06/19 14:26:42;;;;;;;40.35;38.63;;;19.30;96.80;;;;;;4691185;30;20061;-84
2022/06/19 14:29:07;;;;;;;40.90;39.10;;;19.30;96.00;;;;;;4663269;30;20041;-84
2022/06/19 14:31:33;;;;;;;39.83;38.22;;;19.50;96.10;;;;;;4700854;30;20141;-84
2022/06/19 14:34:00;;;;;;;40.95;39.25;;;19.60;96.70;;;;;;4664511;30;20141;-85
2022/06/19 14:36:28;;;;;;;41.40;39.70;;;19.70;97.10;;;;;;4727245;25;20081;-81
2022/06/19 14:39:23;;;;;;;42.63;40.88;;;19.80;96.60;;;;;;4681622;30;20034;-81
2022/06/19 14:41:57;;;;;;;38.92;37.35;;;19.80;95.90;;;;;;4665441;30;20133;-81
2022/06/19 14:44:22;;;;;;;41.97;40.30;;;19.70;96.10;;;;;;4695072;30;20566;-81
2022/06/19 14:47:06;;;;;;;44.50;42.75;;;19.60;96.80;;;;;;4665581;30;20145;-80
2022/06/19 14:49:50;;;;;;;41.38;39.78;;;19.50;96.90;;;;;;4680117;30;20430;-81
2022/06/19 14:52:43;;;;;;;39.83;38.33;;;19.40;96.50;;;;;;4681934;30;20576;-80
2022/06/19 14:55:31;;;;;;;38.28;36.67;;;19.30;96.00;;;;;;4683157;30;20073;-80
2022/06/19 14:58:00;;;;;;;39.55;37.85;;;19.20;96.50;;;;;;4682956;30;20569;-80
2022/06/19 15:00:41;;;;;;;36.78;35.28;;;19.20;96.80;;;;;;4682909;30;20045;-81
2022/06/19 15:03:39;;;;;;;37.60;36.20;;;19.10;96.60;;;;;;4685451;30;20170;-80
2022/06/19 15:06:38;;;;;;;39.13;37.42;;;18.90;96.40;;;;;;4669450;30;20199;-81
2022/06/19 15:09:08;;;;;;;37.13;35.65;;;18.80;95.40;;;;;;4659686;30;20069;-80
2022/06/19 15:11:40;;;;;;;36.92;35.33;;;18.70;96.00;;;;;;4670695;30;20046;-82
2022/06/19 15:14:21;;;;;;;38.58;37.03;;;18.60;95.70;;;;;;4682907;30;20050;-82
2022/06/19 15:16:59;;;;;;;38.38;36.72;;;18.50;96.00;;;;;;4672635;30;20171;-82
2022/06/19 15:19:45;;;;;;;37.25;35.75;;;18.40;96.60;;;;;;4699167;30;20053;-82
2022/06/19 15:22:26;;;;;;;39.03;37.40;;;18.20;96.00;;;;;;4686831;30;20057;-82
2022/06/19 15:24:51;;;;;;;35.75;34.22;;;18.10;95.50;;;;;;4686181;30;20066;-81
2022/06/19 15:27:23;;;;;;;37.78;36.20;;;17.90;95.70;;;;;;4686935;30;20054;-81
2022/06/19 15:29:56;;;;;;;34.33;32.88;;;17.80;95.00;;;;;;4686371;30;20112;-83
2022/06/19 15:32:21;;;;;;;;;;;17.60;94.80;;;;;;4687509;30;20647;-82
2022/06/19 15:34:55;;;;;;;31.23;29.83;;;17.50;95.00;;;;;;4686928;30;19966;-82
2022/06/19 15:37:50;;;;;;;33.20;31.75;;;17.40;94.40;;;;;;4674308;30;20402;-81
2022/06/19 15:40:16;;;;;;;33.20;31.60;;;17.30;95.20;;;;;;4683066;30;20050;-81
2022/06/19 15:42:47;;;;;;;28.48;27.15;;;17.20;95.60;;;;;;4684567;30;20068;-81
2022/06/19 15:45:17;;;;;;;33.05;31.65;;;17.20;97.00;;;;;;4683930;30;20464;-80
2022/06/19 15:48:11;;;;;;;28.73;27.45;;;17.10;98.00;;;;;;4681579;30;20061;-81
2022/06/19 15:50:57;;;;;;;31.08;29.65;;;17.10;99.30;;;;;;4662306;30;20062;-81
2022/06/19 15:53:27;;;;;;;30.23;28.92;;;17.10;99.20;;;;;;4682609;30;20061;-76
2022/06/19 15:56:05;;;;;;;27.83;26.73;;;17.10;98.90;;;;;;4681921;30;20473;-80
2022/06/19 15:58:37;;;;;;;30.73;29.23;;;17.20;99.80;;;;;;4682427;30;20053;-80
2022/06/19 16:01:10;;;;;;;31.95;30.55;;;17.30;99.90;;;;;;4682634;30;20085;-80
2022/06/19 16:03:45;;;;;;;29.90;28.65;;;17.30;99.90;;;;;;4691850;30;20037;-80
2022/06/19 16:06:17;;;;;;;33.90;32.45;;;17.40;99.90;;;;;;4668297;30;20070;-80
2022/06/19 16:08:48;;;;;;;32.80;31.10;;;17.50;99.60;;;;;;4681808;30;20069;-78
2022/06/19 16:11:31;;;;;;;35.00;33.50;;;17.40;98.60;;;;;;4666336;30;20591;-78
2022/06/19 16:14:01;;;;;;;34.58;32.95;;;17.30;98.80;;;;;;4680926;30;20337;-78
2022/06/19 16:16:32;;;;;;;33.95;32.28;;;17.20;98.20;;;;;;4682417;30;20042;-79
2022/06/19 16:19:16;;;;;;;33.10;31.67;;;17.00;97.40;;;;;;4682534;30;20054;-79
2022/06/19 16:21:55;;;;;;;31.90;30.60;;;16.80;98.00;;;;;;4682909;30;20049;-81
2022/06/19 16:24:22;;;;;;;30.55;29.10;;;16.70;98.10;;;;;;4666308;30;20104;-81
2022/06/19 16:26:59;;;;;;;33.50;31.90;;;16.70;98.40;;;;;;4682158;30;20395;-83
2022/06/19 16:29:26;;;;;;;33.28;31.85;;;16.70;98.40;;;;;;4683888;30;20461;-80
2022/06/19 16:31:59;;;;;;;34.13;32.63;;;16.70;98.30;;;;;;4683731;30;20695;-81
2022/06/19 16:44:02;;;;;;;33.42;32.00;;;16.80;98.00;;;;;;4668274;30;20104;-82
2022/06/19 16:46:06;;;;;;;29.80;28.40;;;17.10;96.50;;;;;;4682389;30;20145;-81
2022/06/19 16:48:33;;;;;;;34.47;32.97;;;17.10;96.10;;;;;;4683141;30;20109;-80
2022/06/19 16:51:05;;;;;;;32.22;30.65;;;17.10;95.70;;;;;;4682989;30;20054;-81
2022/06/19 16:53:44;;;;;;;31.92;30.52;;;17.10;96.40;;;;;;4683029;30;20042;-81
2022/06/19 16:56:10;;;;;;;32.15;30.73;;;17.10;96.90;;;;;;4683091;30;20046;-81
2022/06/19 16:58:44;;;;;;;33.38;31.90;;;17.10;96.80;;;;;;4683110;30;20056;-81
2022/06/19 17:01:13;;;;;;;35.95;34.38;;;17.00;96.20;;;;;;4682731;30;20490;-80
2022/06/19 17:03:48;;;;;;;33.45;31.85;;;16.90;96.00;;;;;;4682281;30;20042;-80
2022/06/19 17:06:37;;;;;;;32.15;30.75;;;16.80;96.30;;;;;;4683091;30;20057;-80
2022/06/19 17:09:19;;;;;;;30.75;29.25;;;16.80;96.70;;;;;;4683026;30;20053;-80
2022/06/19 17:11:55;;;;;;;20.58;19.52;;;16.70;97.20;;;;;;4679899;30;20033;-80
2022/06/19 17:14:34;;;;;;;29.23;27.85;;;16.80;98.40;;;;;;4683290;30;20056;-80
2022/06/19 17:17:03;;;;;;;34.70;33.10;;;16.80;99.40;;;;;;4665718;30;20491;-80
2022/06/19 17:19:51;;;;;;;35.75;34.22;;;16.80;98.30;;;;;;4683275;30;20046;-80
2022/06/19 17:22:17;;;;;;;36.03;34.22;;;16.80;98.40;;;;;;4684215;30;20046;-80
2022/06/19 17:25:03;;;;;;;34.38;32.80;;;16.90;98.60;;;;;;4682722;30;20056;-80
2022/06/19 17:27:30;;;;;;;34.40;32.88;;;17.00;99.20;;;;;;4682762;30;20054;-80
2022/06/19 17:29:56;;;;;;;39.15;37.38;;;17.10;99.50;;;;;;4669611;30;20073;-80
2022/06/19 17:32:31;;;;;;;34.75;33.22;;;17.10;99.10;;;;;;4682002;30;20131;-80
2022/06/19 17:35:01;;;;;;;36.58;34.97;;;17.20;98.70;;;;;;4682927;30;20050;-80
2022/06/19 17:37:33;;;;;;;34.92;33.13;;;17.20;97.70;;;;;;4683468;30;20513;-80
2022/06/19 17:40:01;;;;;;;36.05;34.47;;;17.20;97.40;;;;;;4682126;30;20046;-81
2022/06/19 17:42:34;;;;;;;36.58;34.95;;;17.20;98.00;;;;;;4696919;30;20050;-81
2022/06/19 17:45:05;;;;;;;37.90;36.30;;;17.10;98.30;;;;;;4683690;30;20113;-81
2022/06/19 17:47:40;;;;;;;36.65;34.95;;;17.10;98.60;;;;;;4683480;30;20050;-81
2022/06/19 17:50:28;;;;;;;34.40;32.80;;;17.10;98.50;;;;;;4682921;30;20134;-81
2022/06/19 17:52:54;;;;;;;27.48;26.08;;;17.00;97.60;;;;;;4679557;30;20053;-81
2022/06/19 17:55:36;;;;;;;36.38;34.70;;;16.90;98.00;;;;;;4682493;30;20215;-80
2022/06/19 17:58:12;;;;;;;33.33;31.75;;;16.90;99.10;;;;;;4670038;30;20046;-80
2022/06/19 18:01:17;;;;;;;32.25;30.80;;;16.90;99.50;;;;;;4679188;30;20073;-80
2022/06/19 18:03:53;;;;;;;34.25;32.65;;;16.80;99.80;;;;;;4666595;30;20054;-81